createdAt,value
2022-11-20T00:00:56.606Z,75.71
2022-11-20T00:03:28.265Z,76.08
2022-11-20T00:06:04.412Z,75.61
2022-11-20T00:08:37.068Z,75.95
2022-11-20T00:11:16.319Z,75.65
2022-11-20T00:13:53.905Z,75.65
2022-11-20T00:16:27.720Z,75.60
2022-11-20T00:18:59.317Z,75.42
2022-11-20T00:21:31.221Z,75.72
2022-11-20T00:24:02.846Z,75.66
2022-11-20T00:26:34.569Z,75.91
2022-11-20T00:29:06.229Z,75.55
2022-11-20T00:31:37.807Z,75.64
2022-11-20T00:34:11.064Z,75.73
2022-11-20T00:36:42.687Z,75.59
2022-11-20T00:39:14.383Z,74.91
2022-11-20T00:41:46.046Z,74.90
2022-11-20T00:44:17.664Z,75.00
2022-11-20T00:46:49.251Z,75.24
2022-11-20T00:49:21.224Z,74.97
2022-11-20T00:51:53.119Z,75.27
2022-11-20T00:54:24.863Z,75.27
2022-11-20T00:56:56.544Z,75.53
2022-11-20T00:59:28.668Z,75.47
2022-11-20T01:02:01.677Z,75.40
2022-11-20T01:04:33.257Z,75.30
2022-11-20T01:07:04.916Z,76.04
2022-11-20T01:09:36.524Z,76.58
2022-11-20T01:12:08.350Z,76.66
2022-11-20T01:14:39.891Z,76.25
2022-11-20T01:17:11.533Z,76.45
2022-11-20T01:19:43.115Z,76.73
2022-11-20T01:22:14.798Z,76.92
2022-11-20T01:24:46.477Z,76.59
2022-11-20T01:27:18.059Z,77.44
2022-11-20T01:29:49.620Z,77.44
2022-11-20T01:32:21.252Z,77.58
2022-11-20T01:34:52.778Z,77.16
2022-11-20T01:37:24.450Z,77.42
2022-11-20T01:39:56.004Z,77.24
2022-11-20T01:42:46.646Z,77.55
2022-11-20T01:46:03.442Z,77.82
2022-11-20T01:49:03.463Z,77.57
2022-11-20T01:51:34.919Z,77.82
2022-11-20T01:54:13.056Z,78.01
2022-11-20T01:56:46.848Z,77.72
2022-11-20T01:59:21.044Z,78.28
2022-11-20T02:01:54.665Z,78.13
2022-11-20T02:04:26.872Z,78.34
2022-11-20T02:07:01.597Z,78.15
2022-11-20T02:09:33.130Z,78.53
2022-11-20T02:12:05.208Z,78.65
2022-11-20T02:14:36.828Z,78.38
2022-11-20T02:17:09.352Z,78.06
2022-11-20T02:19:41.023Z,77.81
2022-11-20T02:22:35.132Z,77.47
2022-11-20T02:25:12.348Z,77.04
2022-11-20T02:27:44.152Z,76.65
2022-11-20T02:30:15.788Z,76.77
2022-11-20T02:32:47.504Z,76.59
2022-11-20T02:35:19.254Z,76.64
2022-11-20T02:38:01.439Z,76.67
2022-11-20T02:40:33.219Z,76.03
2022-11-20T02:43:04.971Z,76.56
2022-11-20T02:45:36.680Z,76.25
2022-11-20T02:48:08.800Z,76.74
2022-11-20T02:50:41.027Z,75.95
2022-11-20T02:53:12.665Z,75.98
2022-11-20T02:55:44.328Z,76.41
2022-11-20T02:58:15.928Z,76.67
2022-11-20T03:00:49.843Z,76.93
2022-11-20T03:03:21.414Z,77.08
2022-11-20T03:05:56.081Z,77.38
2022-11-20T03:08:27.694Z,77.36
2022-11-20T03:11:04.219Z,77.80
2022-11-20T03:13:37.405Z,77.14
2022-11-20T03:16:15.165Z,76.96
2022-11-20T03:18:47.218Z,76.62
2022-11-20T03:21:18.913Z,76.64
2022-11-20T03:23:50.448Z,76.28
2022-11-20T03:26:24.972Z,76.16
2022-11-20T03:28:59.108Z,75.96
2022-11-20T03:31:41.511Z,75.79
2022-11-20T03:34:13.337Z,76.08
2022-11-20T03:36:45.091Z,75.38
2022-11-20T03:39:16.704Z,75.79
2022-11-20T03:41:48.777Z,75.45
2022-11-20T03:44:22.315Z,75.75
2022-11-20T03:46:53.927Z,76.02
2022-11-20T03:49:25.449Z,75.94
2022-11-20T03:51:57.323Z,76.60
2022-11-20T03:54:28.863Z,76.36
2022-11-20T03:57:00.455Z,76.55
2022-11-20T03:59:32.252Z,75.78
2022-11-20T04:02:03.953Z,75.42
2022-11-20T04:04:37.521Z,75.31
2022-11-20T04:07:09.830Z,75.03
2022-11-20T04:09:41.465Z,74.90
2022-11-20T04:12:15.720Z,74.86
2022-11-20T04:14:47.309Z,75.42
2022-11-20T04:17:18.923Z,75.16
2022-11-20T04:19:50.502Z,75.54
2022-11-20T04:22:22.130Z,75.61
2022-11-20T04:24:53.741Z,75.28
2022-11-20T04:27:25.405Z,75.50
2022-11-20T04:29:56.993Z,75.84
2022-11-20T04:32:29.737Z,75.64
2022-11-20T04:35:01.311Z,75.93
2022-11-20T04:37:32.898Z,75.59
2022-11-20T04:40:04.912Z,75.58
2022-11-20T04:42:36.487Z,75.56
2022-11-20T04:45:08.376Z,76.04
2022-11-20T04:47:39.984Z,75.72
2022-11-20T04:50:11.740Z,75.75
2022-11-20T04:52:43.377Z,76.04
2022-11-20T04:55:15.003Z,75.53
2022-11-20T04:57:46.621Z,75.80
2022-11-20T05:00:18.336Z,76.09
2022-11-20T05:02:50.083Z,76.53
2022-11-20T05:05:21.671Z,76.70
2022-11-20T05:07:58.516Z,76.53
2022-11-20T05:10:29.975Z,76.49
2022-11-20T05:13:01.540Z,76.90
2022-11-20T05:15:33.467Z,77.19
2022-11-20T05:18:05.264Z,77.37
2022-11-20T05:20:37.310Z,77.00
2022-11-20T05:23:08.883Z,77.12
2022-11-20T05:25:40.445Z,76.94
2022-11-20T05:28:12.081Z,77.17
2022-11-20T05:30:43.666Z,77.06
2022-11-20T05:33:15.648Z,77.09
2022-11-20T05:35:47.271Z,77.07
2022-11-20T05:38:18.852Z,77.15
2022-11-20T05:40:50.593Z,76.89
2022-11-20T05:43:22.443Z,77.23
2022-11-20T05:45:57.852Z,77.31
2022-11-20T05:48:29.487Z,77.29
2022-11-20T05:51:05.563Z,76.81
2022-11-20T05:53:37.456Z,76.87
2022-11-20T05:56:12.644Z,76.69
2022-11-20T05:58:49.666Z,77.00
2022-11-20T06:01:26.856Z,76.77
2022-11-20T06:03:58.463Z,76.76
2022-11-20T06:06:30.011Z,76.52
2022-11-20T06:09:01.620Z,76.42
2022-11-20T06:11:33.231Z,76.12
2022-11-20T06:14:04.856Z,76.25
2022-11-20T06:16:36.439Z,75.92
2022-11-20T06:19:08.046Z,75.96
2022-11-20T06:21:39.837Z,76.07
2022-11-20T06:24:12.138Z,75.58
2022-11-20T06:26:44.079Z,75.66
2022-11-20T06:29:15.710Z,75.82
2022-11-20T06:31:47.412Z,75.51
2022-11-20T06:34:18.984Z,75.86
2022-11-20T06:36:53.651Z,75.25
2022-11-20T06:39:25.310Z,75.74
2022-11-20T06:41:58.964Z,75.80
2022-11-20T06:44:31.014Z,75.23
2022-11-20T06:47:02.763Z,75.10
2022-11-20T06:49:35.441Z,74.82
2022-11-20T06:52:07.233Z,74.55
2022-11-20T06:54:39.009Z,74.53
2022-11-20T06:57:10.701Z,74.48
2022-11-20T06:59:42.321Z,74.11
2022-11-20T07:02:14.025Z,74.04
2022-11-20T07:04:48.676Z,74.25
2022-11-20T07:07:20.374Z,74.75
2022-11-20T07:09:52.038Z,74.46
2022-11-20T07:12:23.572Z,74.41
2022-11-20T07:14:55.782Z,74.68
2022-11-20T07:17:27.645Z,74.68
2022-11-20T07:19:59.292Z,74.05
2022-11-20T07:22:30.901Z,74.51
2022-11-20T07:25:05.948Z,74.23
2022-11-20T07:27:37.539Z,74.44
2022-11-20T07:30:09.769Z,74.57
2022-11-20T07:32:41.686Z,74.37
2022-11-20T07:35:13.880Z,74.64
2022-11-20T07:37:49.537Z,74.25
2022-11-20T07:40:21.343Z,74.05
2022-11-20T07:42:56.401Z,73.84
2022-11-20T07:45:27.975Z,73.62
2022-11-20T07:47:59.566Z,72.98
2022-11-20T07:50:36.415Z,72.75
2022-11-20T07:53:08.261Z,72.14
2022-11-20T07:55:41.208Z,72.61
2022-11-20T07:58:12.878Z,72.58
2022-11-20T08:00:44.600Z,72.56
2022-11-20T08:03:20.265Z,71.45
2022-11-20T08:06:01.344Z,71.08
2022-11-20T08:08:34.202Z,71.41
2022-11-20T08:11:36.036Z,71.33
2022-11-20T08:14:14.009Z,71.56
2022-11-20T08:16:48.103Z,71.78
2022-11-20T08:19:20.437Z,71.77
2022-11-20T08:21:52.275Z,71.16
2022-11-20T08:24:23.936Z,71.83
2022-11-20T08:26:58.864Z,71.92
2022-11-20T08:29:30.528Z,72.10
2022-11-20T08:32:02.175Z,71.69
2022-11-20T08:34:33.754Z,71.55
2022-11-20T08:37:05.512Z,71.89
2022-11-20T08:39:37.125Z,71.59
2022-11-20T08:42:09.472Z,71.43
2022-11-20T08:44:41.049Z,71.64
2022-11-20T08:47:12.699Z,71.97
2022-11-20T08:49:44.370Z,71.81
2022-11-20T08:52:15.997Z,71.87
2022-11-20T08:54:47.636Z,71.73
2022-11-20T08:57:19.256Z,71.68
2022-11-20T09:00:05.443Z,71.77
2022-11-20T09:02:39.087Z,71.62
2022-11-20T09:05:10.789Z,71.55
2022-11-20T09:07:43.157Z,71.58
2022-11-20T09:10:30.425Z,71.45
2022-11-20T09:13:02.646Z,71.27
2022-11-20T09:15:34.898Z,71.05
2022-11-20T09:18:06.545Z,71.03
2022-11-20T09:20:38.337Z,70.89
2022-11-20T09:23:10.383Z,71.26
2022-11-20T09:25:42.403Z,70.56
2022-11-20T09:28:14.267Z,70.56
2022-11-20T09:30:45.936Z,70.50
2022-11-20T09:33:18.071Z,70.50
2022-11-20T09:35:49.701Z,70.52
2022-11-20T09:38:21.298Z,70.79
2022-11-20T09:40:59.190Z,70.38
2022-11-20T09:43:42.544Z,70.75
2022-11-20T09:46:30.577Z,70.37
2022-11-20T09:49:08.252Z,70.57
2022-11-20T09:51:59.077Z,70.91
2022-11-20T09:54:34.855Z,72.14
2022-11-20T09:57:12.579Z,72.27
2022-11-20T10:00:01.592Z,72.55
2022-11-20T10:03:04.892Z,72.61
2022-11-20T10:05:42.337Z,72.52
2022-11-20T10:08:23.096Z,73.03
2022-11-20T10:11:05.585Z,73.04
2022-11-20T10:13:49.314Z,73.01
2022-11-20T10:16:42.593Z,73.09
2022-11-20T10:19:31.069Z,73.34
2022-11-20T10:22:21.204Z,73.58
2022-11-20T10:24:52.685Z,73.17
2022-11-20T10:27:33.309Z,73.36
2022-11-20T10:30:12.221Z,73.26
2022-11-20T10:32:47.992Z,73.52
2022-11-20T10:35:29.065Z,73.62
2022-11-20T10:38:03.969Z,73.67
2022-11-20T10:40:39.302Z,73.67
2022-11-20T10:43:32.903Z,73.32
2022-11-20T10:46:09.634Z,73.64
2022-11-20T10:48:44.184Z,73.63
2022-11-20T10:51:18.822Z,73.72
2022-11-20T10:54:12.082Z,73.89
2022-11-20T10:56:57.117Z,73.43
2022-11-20T10:59:44.706Z,73.78
2022-11-20T11:02:34.465Z,73.88
2022-11-20T11:05:29.878Z,73.35
2022-11-20T11:08:01.741Z,73.73
2022-11-20T11:10:43.195Z,73.90
2022-11-20T11:13:40.765Z,73.61
2022-11-20T11:16:27.526Z,73.29
2022-11-20T11:19:14.497Z,73.29
2022-11-20T11:21:55.003Z,72.76
2022-11-20T11:24:42.067Z,72.93
2022-11-20T11:27:18.818Z,72.63
2022-11-20T11:29:51.307Z,72.57
2022-11-20T11:32:23.183Z,72.35
2022-11-20T11:35:07.448Z,72.10
2022-11-20T11:37:40.527Z,72.15
2022-11-20T11:40:28.299Z,72.30
2022-11-20T11:43:26.794Z,71.18
2022-11-20T11:45:58.583Z,70.97
2022-11-20T11:48:30.256Z,71.19
2022-11-20T11:51:01.848Z,70.75
2022-11-20T11:53:40.089Z,70.76
2022-11-20T11:56:14.537Z,70.81
2022-11-20T11:58:49.315Z,70.24
2022-11-20T12:01:45.178Z,69.51
2022-11-20T12:04:22.544Z,69.70
2022-11-20T12:07:31.127Z,70.10
2022-11-20T12:10:02.969Z,69.65
2022-11-20T12:12:42.547Z,69.98
2022-11-20T12:15:24.209Z,70.33
2022-11-20T12:17:56.268Z,70.97
2022-11-20T12:20:35.985Z,70.70
2022-11-20T12:23:19.980Z,71.48
2022-11-20T12:25:55.251Z,72.04
2022-11-20T12:28:52.843Z,71.77
2022-11-20T12:31:40.358Z,70.88
2022-11-20T12:34:33.503Z,71.70
2022-11-20T12:37:14.110Z,71.50
2022-11-20T12:39:51.617Z,71.25
2022-11-20T12:43:00.596Z,71.05
2022-11-20T12:45:50.460Z,70.77
2022-11-20T12:48:24.757Z,70.71
2022-11-20T12:51:15.632Z,71.31
2022-11-20T12:54:18.368Z,71.05
2022-11-20T12:56:52.654Z,70.89
2022-11-20T12:59:45.640Z,71.16
2022-11-20T13:02:28.742Z,71.61
2022-11-20T13:05:19.917Z,72.29
2022-11-20T13:07:54.040Z,72.31
2022-11-20T13:11:02.201Z,71.65
2022-11-20T13:13:43.408Z,72.29
2022-11-20T13:16:37.602Z,72.77
2022-11-20T13:19:13.443Z,72.95
2022-11-20T13:21:52.796Z,72.48
2022-11-20T13:24:27.685Z,72.86
2022-11-20T13:27:19.147Z,72.93
2022-11-20T13:30:15.544Z,72.42
2022-11-20T13:33:18.252Z,72.44
2022-11-20T13:36:23.625Z,72.31
2022-11-20T13:38:57.001Z,72.16
2022-11-20T13:41:38.908Z,72.50
2022-11-20T13:44:23.073Z,72.10
2022-11-20T13:46:54.842Z,72.30
2022-11-20T13:49:32.584Z,72.78
2022-11-20T13:52:42.635Z,72.31
2022-11-20T13:55:37.436Z,72.99
2022-11-20T13:58:25.673Z,72.92
2022-11-20T14:01:22.683Z,72.88
2022-11-20T14:04:10.126Z,73.01
2022-11-20T14:06:44.223Z,73.16
2022-11-20T14:09:32.991Z,73.70
2022-11-20T14:12:15.222Z,74.28
2022-11-20T14:14:52.239Z,73.68
2022-11-20T14:17:29.865Z,74.18
2022-11-20T14:20:15.184Z,74.11
2022-11-20T14:22:51.707Z,74.04
2022-11-20T14:25:28.259Z,74.66
2022-11-20T14:28:02.060Z,74.98
2022-11-20T14:30:45.695Z,74.88
2022-11-20T14:33:18.377Z,74.78
2022-11-20T14:35:53.270Z,74.22
2022-11-20T14:38:34.069Z,74.10
2022-11-20T14:41:38.509Z,73.95
2022-11-20T14:44:11.075Z,74.42
2022-11-20T14:46:43.369Z,75.02
2022-11-20T14:49:15.243Z,75.12
2022-11-20T14:51:47.571Z,74.80
2022-11-20T14:54:25.058Z,74.86
2022-11-20T14:57:03.074Z,75.33
2022-11-20T14:59:36.768Z,75.61
2022-11-20T15:02:14.102Z,75.66
2022-11-20T15:04:51.117Z,76.20
2022-11-20T15:07:26.566Z,76.40
2022-11-20T15:10:11.431Z,76.27
2022-11-20T15:13:01.058Z,76.21
2022-11-20T15:15:53.278Z,76.04
2022-11-20T15:18:45.742Z,76.50
2022-11-20T15:21:21.964Z,76.48
2022-11-20T15:23:54.682Z,76.62
2022-11-20T15:26:28.116Z,76.23
2022-11-20T15:28:59.915Z,76.22
2022-11-20T15:31:31.477Z,76.04
2022-11-20T15:34:03.100Z,76.52
2022-11-20T15:36:34.710Z,76.56
2022-11-20T15:39:08.228Z,76.87
2022-11-20T15:41:40.029Z,77.15
2022-11-20T15:44:14.792Z,76.76
2022-11-20T15:46:47.621Z,76.66
2022-11-20T15:49:23.791Z,76.80
2022-11-20T15:51:55.414Z,76.84
2022-11-20T15:54:27.307Z,77.34
2022-11-20T15:57:00.222Z,77.05
2022-11-20T15:59:34.014Z,77.36
2022-11-20T16:02:15.945Z,77.82
2022-11-20T16:04:50.928Z,78.03
2022-11-20T16:07:25.689Z,77.98
2022-11-20T16:09:57.613Z,77.91
2022-11-20T16:12:47.561Z,77.78
2022-11-20T16:15:39.761Z,77.46
2022-11-20T16:18:12.832Z,77.82
2022-11-20T16:20:49.037Z,77.54
2022-11-20T16:23:21.315Z,78.06
2022-11-20T16:25:53.052Z,77.75
2022-11-20T16:28:24.775Z,78.11
2022-11-20T16:30:56.368Z,78.32
2022-11-20T16:33:28.013Z,77.91
2022-11-20T16:36:07.887Z,77.74
2022-11-20T16:38:44.584Z,77.61
2022-11-20T16:41:19.176Z,77.92
2022-11-20T16:43:58.504Z,77.46
2022-11-20T16:46:32.092Z,77.65
2022-11-20T16:49:12.174Z,77.87
2022-11-20T16:51:47.026Z,78.51
2022-11-20T16:54:21.158Z,78.84
2022-11-20T16:56:54.243Z,78.50
2022-11-20T16:59:26.267Z,78.62
2022-11-20T17:01:57.901Z,78.56
2022-11-20T17:04:34.556Z,78.54
2022-11-20T17:07:08.087Z,78.80
2022-11-20T17:09:40.058Z,78.66
2022-11-20T17:12:11.713Z,78.77
2022-11-20T17:14:43.587Z,79.17
2022-11-20T17:17:15.264Z,79.37
2022-11-20T17:19:47.200Z,79.20
2022-11-20T17:22:18.822Z,79.51
2022-11-20T17:24:53.250Z,79.92
2022-11-20T17:27:24.904Z,79.34
2022-11-20T17:29:58.146Z,79.87
2022-11-20T17:32:29.865Z,79.84
2022-11-20T17:35:01.713Z,79.82
2022-11-20T17:37:33.258Z,79.17
2022-11-20T17:40:05.470Z,80.03
2022-11-20T17:42:37.109Z,80.17
2022-11-20T17:45:12.216Z,80.12
2022-11-20T17:47:46.466Z,80.27
2022-11-20T17:50:18.180Z,80.48
2022-11-20T17:52:49.780Z,80.28
2022-11-20T17:55:22.029Z,80.48
2022-11-20T17:57:53.742Z,80.37
2022-11-20T18:00:26.138Z,80.61
2022-11-20T18:02:57.845Z,80.42
2022-11-20T18:05:29.599Z,80.81
2022-11-20T18:08:01.202Z,80.63
2022-11-20T18:10:35.988Z,80.40
2022-11-20T18:13:07.562Z,80.56
2022-11-20T18:15:39.177Z,80.15
2022-11-20T18:18:12.995Z,79.74
2022-11-20T18:20:44.645Z,80.42
2022-11-20T18:23:16.371Z,80.58
2022-11-20T18:25:47.985Z,79.92
2022-11-20T18:28:20.106Z,79.92
2022-11-20T18:30:51.728Z,80.34
2022-11-20T18:33:28.256Z,80.52
2022-11-20T18:36:15.082Z,80.22
2022-11-20T18:38:48.997Z,80.19
2022-11-20T18:41:40.468Z,80.16
2022-11-20T18:44:38.699Z,80.14
2022-11-20T18:47:14.973Z,80.13
2022-11-20T18:49:53.043Z,80.34
2022-11-20T18:52:30.408Z,80.04
2022-11-20T18:55:04.022Z,80.37
2022-11-20T18:57:38.617Z,80.35
2022-11-20T19:00:11.039Z,80.32
2022-11-20T19:02:45.599Z,80.46
2022-11-20T19:05:17.372Z,80.10
2022-11-20T19:07:49.172Z,80.30
2022-11-20T19:10:21.420Z,79.96
2022-11-20T19:12:53.063Z,80.25
2022-11-20T19:15:24.659Z,80.76
2022-11-20T19:17:57.677Z,80.85
2022-11-20T19:20:29.637Z,81.17
2022-11-20T19:23:01.549Z,81.01
2022-11-20T19:25:37.871Z,80.51
2022-11-20T19:28:09.676Z,80.94
2022-11-20T19:30:43.010Z,80.74
2022-11-20T19:33:14.748Z,80.71
2022-11-20T19:35:46.364Z,81.00
2022-11-20T19:38:18.329Z,80.75
2022-11-20T19:40:50.026Z,80.66
2022-11-20T19:43:21.674Z,80.77
2022-11-20T19:45:53.465Z,80.56
2022-11-20T19:48:25.159Z,80.05
2022-11-20T19:50:56.814Z,80.06
2022-11-20T19:53:29.902Z,80.19
2022-11-20T19:56:01.968Z,80.35
2022-11-20T19:58:33.905Z,80.65
2022-11-20T20:01:09.098Z,80.79
2022-11-20T20:03:41.474Z,80.46
2022-11-20T20:06:19.825Z,80.86
2022-11-20T20:09:12.579Z,81.00
2022-11-20T20:11:48.168Z,80.91
2022-11-20T20:14:20.078Z,80.74
2022-11-20T20:16:53.715Z,80.97
2022-11-20T20:19:25.698Z,81.27
2022-11-20T20:22:01.792Z,81.22
2022-11-20T20:24:38.741Z,80.78
2022-11-20T20:27:10.473Z,81.44
2022-11-20T20:29:42.277Z,81.01
2022-11-20T20:32:16.838Z,80.83
2022-11-20T20:34:48.489Z,81.02
2022-11-20T20:37:20.070Z,81.29
2022-11-20T20:39:51.728Z,81.40
2022-11-20T20:42:23.334Z,81.52
2022-11-20T20:45:11.253Z,81.31
2022-11-20T20:47:45.862Z,81.06
2022-11-20T20:50:20.848Z,81.01
2022-11-20T20:52:52.436Z,80.96
2022-11-20T20:55:25.287Z,80.90
2022-11-20T20:57:56.929Z,81.17
2022-11-20T21:00:28.668Z,81.28
2022-11-20T21:03:00.389Z,81.27
2022-11-20T21:05:32.044Z,80.89
2022-11-20T21:08:21.824Z,80.83
2022-11-20T21:11:03.157Z,81.56
2022-11-20T21:13:36.356Z,81.27
2022-11-20T21:16:08.105Z,81.23
2022-11-20T21:18:39.903Z,81.45
2022-11-20T21:21:35.618Z,81.08
2022-11-20T21:24:07.659Z,80.94
2022-11-20T21:26:39.370Z,81.00
2022-11-20T21:29:10.960Z,81.31
2022-11-20T21:31:42.879Z,81.09
2022-11-20T21:34:15.828Z,81.12
2022-11-20T21:36:47.693Z,80.84
2022-11-20T21:39:22.969Z,81.19
2022-11-20T21:41:54.973Z,80.81
2022-11-20T21:44:41.039Z,80.44
2022-11-20T21:47:13.030Z,80.16
2022-11-20T21:49:44.680Z,80.61
2022-11-20T21:52:17.712Z,80.40
2022-11-20T21:54:49.259Z,80.20
2022-11-20T21:57:21.013Z,80.47
2022-11-20T21:59:52.750Z,80.39
2022-11-20T22:02:24.950Z,80.57
2022-11-20T22:04:56.581Z,80.37
2022-11-20T22:07:28.215Z,79.98
2022-11-20T22:10:00.034Z,79.93
2022-11-20T22:12:32.288Z,79.85
2022-11-20T22:15:07.494Z,80.48
2022-11-20T22:17:57.964Z,79.72
2022-11-20T22:20:29.568Z,80.19
2022-11-20T22:23:01.336Z,79.82
2022-11-20T22:25:33.682Z,79.43
2022-11-20T22:28:08.051Z,79.67
2022-11-20T22:30:46.218Z,79.22
2022-11-20T22:33:21.324Z,79.29
2022-11-20T22:35:56.400Z,79.31
2022-11-20T22:38:35.073Z,79.10
2022-11-20T22:41:15.800Z,78.56
2022-11-20T22:44:12.497Z,78.63
2022-11-20T22:46:46.411Z,78.44
2022-11-20T22:49:21.116Z,78.66
2022-11-20T22:52:02.902Z,78.47
2022-11-20T22:54:38.288Z,78.73
2022-11-20T22:57:14.813Z,78.83
2022-11-20T22:59:46.421Z,78.72
2022-11-20T23:02:32.137Z,78.77
2022-11-20T23:05:07.060Z,79.14
2022-11-20T23:07:46.513Z,78.78
2022-11-20T23:10:25.896Z,79.19
2022-11-20T23:13:19.758Z,79.17
2022-11-20T23:16:46.047Z,78.53
2022-11-20T23:19:00.547Z,78.83
2022-11-20T23:21:36.678Z,78.81
2022-11-20T23:24:18.483Z,78.40
2022-11-20T23:26:51.262Z,78.85
2022-11-20T23:29:22.815Z,78.74
2022-11-20T23:31:54.432Z,78.71
2022-11-20T23:34:26.437Z,78.21
2022-11-20T23:36:58.252Z,78.79
2022-11-20T23:39:31.037Z,78.63
2022-11-20T23:42:02.969Z,79.10
2022-11-20T23:44:34.837Z,79.43
2022-11-20T23:47:06.652Z,78.64
2022-11-20T23:49:38.209Z,78.63
2022-11-20T23:52:12.333Z,78.95
2022-11-20T23:54:44.411Z,79.47
2022-11-20T23:57:16.122Z,79.17
